sensor_id;sensor_type;location;lat;lon;timestamp;pressure;altitude;pressure_sealevel;temperature;humidity
43217;BME280;60511;42.686;23.300;2023-05-25T00:00:09;94678.00;;;24.60;37.60
43217;BME280;60511;42.686;23.300;2023-05-25T00:02:09;94645.47;;;24.37;37.17
43217;BME280;60511;42.686;23.300;2023-05-25T00:04:14;94673.88;;;24.46;37.24
43217;BME280;60511;42.686;23.300;2023-05-25T00:06:15;94667.59;;;24.42;37.19
43217;BME280;60511;42.686;23.300;2023-05-25T00:08:17;94671.16;;;24.46;37.46
43217;BME280;60511;42.686;23.300;2023-05-25T00:10:17;94674.56;;;24.43;37.31
43217;BME280;60511;42.686;23.300;2023-05-25T00:12:18;94686.41;;;24.55;36.42
43217;BME280;60511;42.686;23.300;2023-05-25T00:14:19;94682.56;;;24.56;36.61
43217;BME280;60511;42.686;23.300;2023-05-25T00:16:20;94681.22;;;24.46;36.55
43217;BME280;60511;42.686;23.300;2023-05-25T00:18:20;94693.47;;;24.59;36.52
43217;BME280;60511;42.686;23.300;2023-05-25T00:20:22;94678.94;;;24.48;36.27
43217;BME280;60511;42.686;23.300;2023-05-25T00:22:22;94689.47;;;24.53;36.75
43217;BME280;60511;42.686;23.300;2023-05-25T00:24:23;94695.38;;;24.59;36.59
43217;BME280;60511;42.686;23.300;2023-05-25T00:26:23;94691.19;;;24.61;36.52
43217;BME280;60511;42.686;23.300;2023-05-25T00:28:24;94693.88;;;24.61;36.59
43217;BME280;60511;42.686;23.300;2023-05-25T00:30:24;94684.56;;;24.59;36.24
43217;BME280;60511;42.686;23.300;2023-05-25T00:32:25;94684.50;;;24.55;36.71
43217;BME280;60511;42.686;23.300;2023-05-25T00:34:25;94684.22;;;24.60;36.62
43217;BME280;60511;42.686;23.300;2023-05-25T00:36:26;94692.75;;;24.62;36.20
43217;BME280;60511;42.686;23.300;2023-05-25T00:38:26;94691.94;;;24.62;36.55
43217;BME280;60511;42.686;23.300;2023-05-25T00:40:27;94671.16;;;24.46;36.41
43217;BME280;60511;42.686;23.300;2023-05-25T00:42:28;94679.28;;;24.46;36.56
43217;BME280;60511;42.686;23.300;2023-05-25T00:44:29;94700.44;;;24.60;36.83
43217;BME280;60511;42.686;23.300;2023-05-25T00:46:32;94682.56;;;24.56;36.81
43217;BME280;60511;42.686;23.300;2023-05-25T00:48:33;94693.53;;;24.63;36.53
43217;BME280;60511;42.686;23.300;2023-05-25T00:50:41;94669.88;;;24.40;36.44
43217;BME280;60511;42.686;23.300;2023-05-25T00:52:42;94665.56;;;24.36;36.89
43217;BME280;60511;42.686;23.300;2023-05-25T00:54:46;94698.09;;;24.59;36.35
43217;BME280;60511;42.686;23.300;2023-05-25T00:57:00;94700.38;;;24.57;36.73
43217;BME280;60511;42.686;23.300;2023-05-25T00:59:05;94670.53;;;24.34;36.31
43217;BME280;60511;42.686;23.300;2023-05-25T01:01:08;94709.19;;;24.54;36.47
43217;BME280;60511;42.686;23.300;2023-05-25T01:03:14;94704.59;;;24.54;36.47
43217;BME280;60511;42.686;23.300;2023-05-25T01:05:17;94708.78;;;24.52;36.83
43217;BME280;60511;42.686;23.300;2023-05-25T01:07:22;94710.47;;;24.60;36.56
43217;BME280;60511;42.686;23.300;2023-05-25T01:09:27;94714.03;;;24.64;36.17
43217;BME280;60511;42.686;23.300;2023-05-25T01:11:33;94710.91;;;24.62;36.01
43217;BME280;60511;42.686;23.300;2023-05-25T01:13:37;94697.88;;;24.48;36.38
43217;BME280;60511;42.686;23.300;2023-05-25T01:15:39;94678.28;;;24.35;36.72
43217;BME280;60511;42.686;23.300;2023-05-25T01:17:41;94526.31;;;23.29;36.57
43217;BME280;60511;42.686;23.300;2023-05-25T01:19:42;94704.59;;;24.54;36.39
43217;BME280;60511;42.686;23.300;2023-05-25T01:23:57;94700.72;;;24.55;36.80
43217;BME280;60511;42.686;23.300;2023-05-25T01:26:02;94696.03;;;24.52;36.63
43217;BME280;60511;42.686;23.300;2023-05-25T01:28:20;94668.31;;;24.39;36.61
43217;BME280;60511;42.686;23.300;2023-05-25T01:30:24;94693.38;;;24.56;36.52
43217;BME280;60511;42.686;23.300;2023-05-25T01:32:25;94699.59;;;24.56;36.45
43217;BME280;60511;42.686;23.300;2023-05-25T01:34:27;94668.97;;;24.33;36.64
43217;BME280;60511;42.686;23.300;2023-05-25T01:36:27;94676.00;;;24.37;36.47
43217;BME280;60511;42.686;23.300;2023-05-25T01:38:28;94683.91;;;24.46;36.53
43217;BME280;60511;42.686;23.300;2023-05-25T01:40:28;94690.63;;;24.52;36.36
43217;BME280;60511;42.686;23.300;2023-05-25T01:42:29;94664.84;;;24.39;36.15
43217;BME280;60511;42.686;23.300;2023-05-25T01:44:29;94651.97;;;24.32;36.72
43217;BME280;60511;42.686;23.300;2023-05-25T01:46:37;94587.00;;;23.90;36.55
43217;BME280;60511;42.686;23.300;2023-05-25T01:48:46;94660.28;;;24.43;36.79
43217;BME280;60511;42.686;23.300;2023-05-25T01:53:18;94629.28;;;24.17;36.90
43217;BME280;60511;42.686;23.300;2023-05-25T01:55:24;94671.69;;;24.52;37.38
43217;BME280;60511;42.686;23.300;2023-05-25T01:57:28;94637.50;;;24.24;37.00
43217;BME280;60511;42.686;23.300;2023-05-25T01:59:30;94656.22;;;24.33;37.21
43217;BME280;60511;42.686;23.300;2023-05-25T02:01:32;94682.41;;;24.49;37.19
43217;BME280;60511;42.686;23.300;2023-05-25T02:03:36;94644.84;;;24.24;36.72
43217;BME280;60511;42.686;23.300;2023-05-25T02:05:40;94648.81;;;24.30;36.87
43217;BME280;60511;42.686;23.300;2023-05-25T02:07:40;94682.88;;;24.51;36.57
43217;BME280;60511;42.686;23.300;2023-05-25T02:09:41;94668.31;;;24.39;36.61
43217;BME280;60511;42.686;23.300;2023-05-25T02:11:41;94670.25;;;24.39;36.46
43217;BME280;60511;42.686;23.300;2023-05-25T02:13:42;94661.19;;;24.31;36.63
43217;BME280;60511;42.686;23.300;2023-05-25T02:15:42;94651.38;;;24.23;36.70
43217;BME280;60511;42.686;23.300;2023-05-25T02:17:42;94688.81;;;24.40;36.80
43217;BME280;60511;42.686;23.300;2023-05-25T02:19:44;94689.59;;;24.41;36.62
43217;BME280;60511;42.686;23.300;2023-05-25T02:21:44;94698.22;;;24.46;36.52
43217;BME280;60511;42.686;23.300;2023-05-25T02:23:45;94673.53;;;24.29;36.57
43217;BME280;60511;42.686;23.300;2023-05-25T02:25:46;94670.31;;;24.23;36.32
43217;BME280;60511;42.686;23.300;2023-05-25T02:27:47;94691.03;;;24.35;36.44
43217;BME280;60511;42.686;23.300;2023-05-25T02:29:47;94711.75;;;24.46;36.44
43217;BME280;60511;42.686;23.300;2023-05-25T02:31:48;94681.72;;;24.32;36.51
43217;BME280;60511;42.686;23.300;2023-05-25T02:33:48;94678.94;;;24.29;36.34
43217;BME280;60511;42.686;23.300;2023-05-25T02:35:49;94703.13;;;24.41;36.52
43217;BME280;60511;42.686;23.300;2023-05-25T02:37:49;94714.09;;;24.48;36.55
43217;BME280;60511;42.686;23.300;2023-05-25T02:39:49;94720.28;;;24.49;36.06
43217;BME280;60511;42.686;23.300;2023-05-25T02:41:50;94727.28;;;24.50;36.06
43217;BME280;60511;42.686;23.300;2023-05-25T02:43:50;94715.56;;;24.45;36.64
43217;BME280;60511;42.686;23.300;2023-05-25T02:45:51;94727.63;;;24.48;36.55
43217;BME280;60511;42.686;23.300;2023-05-25T02:47:51;94711.47;;;24.32;36.11
43217;BME280;60511;42.686;23.300;2023-05-25T02:49:52;94709.13;;;24.31;36.17
43217;BME280;60511;42.686;23.300;2023-05-25T02:51:52;94695.03;;;24.21;36.77
43217;BME280;60511;42.686;23.300;2023-05-25T02:53:53;94740.31;;;24.44;36.77
43217;BME280;60511;42.686;23.300;2023-05-25T02:55:53;94734.47;;;24.42;36.27
43217;BME280;60511;42.686;23.300;2023-05-25T02:57:53;94726.63;;;24.37;36.32
43217;BME280;60511;42.686;23.300;2023-05-25T02:59:54;94652.88;;;23.81;36.33
43217;BME280;60511;42.686;23.300;2023-05-25T03:01:55;94728.13;;;24.34;36.53
43217;BME280;60511;42.686;23.300;2023-05-25T03:03:55;94708.91;;;24.20;36.27
43217;BME280;60511;42.686;23.300;2023-05-25T03:05:56;94737.88;;;24.39;37.01
43217;BME280;60511;42.686;23.300;2023-05-25T03:07:57;94721.28;;;24.21;36.53
43217;BME280;60511;42.686;23.300;2023-05-25T03:09:59;94728.78;;;24.27;36.77
43217;BME280;60511;42.686;23.300;2023-05-25T03:11:59;94701.78;;;24.12;36.54
43217;BME280;60511;42.686;23.300;2023-05-25T03:14:00;94713.88;;;24.18;37.00
43217;BME280;60511;42.686;23.300;2023-05-25T03:16:01;94727.34;;;24.34;36.54
43217;BME280;60511;42.686;23.300;2023-05-25T03:18:01;94738.38;;;24.44;36.73
43217;BME280;60511;42.686;23.300;2023-05-25T03:20:02;94718.31;;;24.26;36.82
43217;BME280;60511;42.686;23.300;2023-05-25T03:22:03;94713.53;;;24.19;36.44
43217;BME280;60511;42.686;23.300;2023-05-25T03:24:04;94745.63;;;24.40;36.69
43217;BME280;60511;42.686;23.300;2023-05-25T03:26:04;94747.91;;;24.38;36.56
43217;BME280;60511;42.686;23.300;2023-05-25T03:28:05;94742.78;;;24.33;36.58
43217;BME280;60511;42.686;23.300;2023-05-25T03:30:06;94751.75;;;24.37;36.36
43217;BME280;60511;42.686;23.300;2023-05-25T03:32:06;94732.94;;;24.25;36.82
43217;BME280;60511;42.686;23.300;2023-05-25T03:34:07;94754.09;;;24.39;36.52
43217;BME280;60511;42.686;23.300;2023-05-25T03:36:08;94749.03;;;24.37;36.70
43217;BME280;60511;42.686;23.300;2023-05-25T03:38:09;94751.75;;;24.37;36.87
43217;BME280;60511;42.686;23.300;2023-05-25T03:40:09;94759.50;;;24.39;36.43
43217;BME280;60511;42.686;23.300;2023-05-25T03:42:10;94743.19;;;24.35;37.01
43217;BME280;60511;42.686;23.300;2023-05-25T03:44:11;94750.31;;;24.43;36.61
43217;BME280;60511;42.686;23.300;2023-05-25T03:46:11;94730.75;;;24.31;36.57
43217;BME280;60511;42.686;23.300;2023-05-25T03:48:12;94749.53;;;24.43;36.81
43217;BME280;60511;42.686;23.300;2023-05-25T03:50:12;94746.84;;;24.43;36.52
43217;BME280;60511;42.686;23.300;2023-05-25T03:52:13;94720.56;;;24.24;36.38
43217;BME280;60511;42.686;23.300;2023-05-25T03:54:13;94757.66;;;24.43;36.41
43217;BME280;60511;42.686;23.300;2023-05-25T03:56:14;94734.97;;;24.28;36.52
43217;BME280;60511;42.686;23.300;2023-05-25T03:58:14;94722.84;;;24.22;36.40
43217;BME280;60511;42.686;23.300;2023-05-25T04:00:17;94752.69;;;24.45;36.35
43217;BME280;60511;42.686;23.300;2023-05-25T04:02:18;94705.56;;;24.07;36.54
43217;BME280;60511;42.686;23.300;2023-05-25T04:04:18;94768.13;;;24.44;36.36
43217;BME280;60511;42.686;23.300;2023-05-25T04:06:19;94752.91;;;24.36;36.81
43217;BME280;60511;42.686;23.300;2023-05-25T04:08:20;94764.28;;;24.45;36.72
43217;BME280;60511;42.686;23.300;2023-05-25T04:10:21;94736.88;;;24.27;36.57
43217;BME280;60511;42.686;23.300;2023-05-25T04:12:21;94750.19;;;24.36;36.80
43217;BME280;60511;42.686;23.300;2023-05-25T04:14:22;94767.78;;;24.46;36.57
43217;BME280;60511;42.686;23.300;2023-05-25T04:16:22;94775.91;;;24.46;36.57
43217;BME280;60511;42.686;23.300;2023-05-25T04:18:25;94754.25;;;24.26;36.38
43217;BME280;60511;42.686;23.300;2023-05-25T04:20:25;94765.69;;;24.39;36.33
43217;BME280;60511;42.686;23.300;2023-05-25T04:22:25;94771.53;;;24.41;36.39
43217;BME280;60511;42.686;23.300;2023-05-25T04:24:26;94783.66;;;24.47;36.49
43217;BME280;60511;42.686;23.300;2023-05-25T04:26:26;94740.63;;;24.23;36.55
43217;BME280;60511;42.686;23.300;2023-05-25T04:28:27;94756.25;;;24.30;36.46
43217;BME280;60511;42.686;23.300;2023-05-25T04:30:27;94746.84;;;24.23;36.34
43217;BME280;60511;42.686;23.300;2023-05-25T04:32:28;94734.66;;;24.14;36.31
43217;BME280;60511;42.686;23.300;2023-05-25T04:34:31;94792.22;;;24.50;36.63
43217;BME280;60511;42.686;23.300;2023-05-25T04:36:32;94793.59;;;24.43;36.36
43217;BME280;60511;42.686;23.300;2023-05-25T04:38:33;94796.41;;;24.47;37.03
43217;BME280;60511;42.686;23.300;2023-05-25T04:40:34;94773.34;;;24.34;36.51
43217;BME280;60511;42.686;23.300;2023-05-25T04:42:35;94797.78;;;24.57;36.41
43217;BME280;60511;42.686;23.300;2023-05-25T04:44:37;94642.13;;;23.50;36.60
43217;BME280;60511;42.686;23.300;2023-05-25T04:46:39;94801.63;;;24.56;36.80
43217;BME280;60511;42.686;23.300;2023-05-25T04:48:39;94805.91;;;24.57;36.59
43217;BME280;60511;42.686;23.300;2023-05-25T04:50:40;94781.22;;;24.42;36.36
43217;BME280;60511;42.686;23.300;2023-05-25T04:52:40;94791.09;;;24.51;36.37
43217;BME280;60511;42.686;23.300;2023-05-25T04:54:41;94766.06;;;24.38;36.45
43217;BME280;60511;42.686;23.300;2023-05-25T04:56:42;94793.06;;;24.54;36.47
43217;BME280;60511;42.686;23.300;2023-05-25T04:58:43;94751.19;;;24.28;36.30
43217;BME280;60511;42.686;23.300;2023-05-25T05:00:43;94755.59;;;24.36;36.30
43217;BME280;60511;42.686;23.300;2023-05-25T05:02:44;94785.38;;;24.56;36.43
43217;BME280;60511;42.686;23.300;2023-05-25T05:04:45;94766.94;;;24.42;36.44
43217;BME280;60511;42.686;23.300;2023-05-25T05:06:45;94785.38;;;24.56;36.50
43217;BME280;60511;42.686;23.300;2023-05-25T05:08:46;94749.69;;;24.31;36.43
43217;BME280;60511;42.686;23.300;2023-05-25T05:10:46;94755.59;;;24.36;36.49
43217;BME280;60511;42.686;23.300;2023-05-25T05:12:47;94755.59;;;24.36;37.28
43217;BME280;60511;42.686;23.300;2023-05-25T05:14:47;94784.19;;;24.53;36.77
43217;BME280;60511;42.686;23.300;2023-05-25T05:16:48;94765.84;;;24.46;36.80
43217;BME280;60511;42.686;23.300;2023-05-25T05:18:48;94786.97;;;24.57;36.68
43217;BME280;60511;42.686;23.300;2023-05-25T05:20:49;94781.22;;;24.58;36.57
43217;BME280;60511;42.686;23.300;2023-05-25T05:22:49;94792.81;;;24.59;37.11
43217;BME280;60511;42.686;23.300;2023-05-25T05:24:50;94778.69;;;24.50;36.55
43217;BME280;60511;42.686;23.300;2023-05-25T05:26:50;94745.44;;;24.30;36.78
43217;BME280;60511;42.686;23.300;2023-05-25T05:28:51;94763.00;;;24.39;36.68
43217;BME280;60511;42.686;23.300;2023-05-25T05:30:52;94785.38;;;24.56;36.92
43217;BME280;60511;42.686;23.300;2023-05-25T05:32:52;94780.16;;;24.47;37.05
43217;BME280;60511;42.686;23.300;2023-05-25T05:34:53;94797.16;;;24.63;36.79
43217;BME280;60511;42.686;23.300;2023-05-25T05:36:53;94801.78;;;24.63;36.70
43217;BME280;60511;42.686;23.300;2023-05-25T05:38:54;94801.88;;;24.66;36.75
43217;BME280;60511;42.686;23.300;2023-05-25T05:40:54;94766.13;;;24.41;36.50
43217;BME280;60511;42.686;23.300;2023-05-25T05:42:55;94753.53;;;24.30;36.60
43217;BME280;60511;42.686;23.300;2023-05-25T05:44:55;94804.56;;;24.66;36.75
43217;BME280;60511;42.686;23.300;2023-05-25T05:46:56;94772.34;;;24.42;36.74
43217;BME280;60511;42.686;23.300;2023-05-25T05:48:59;94786.72;;;24.46;36.69
43217;BME280;60511;42.686;23.300;2023-05-25T05:51:00;94722.81;;;24.02;36.67
43217;BME280;60511;42.686;23.300;2023-05-25T05:53:00;94756.44;;;24.21;36.71
43217;BME280;60511;42.686;23.300;2023-05-25T05:55:00;94799.28;;;24.54;36.69
43217;BME280;60511;42.686;23.300;2023-05-25T05:57:01;94805.13;;;24.56;36.57
43217;BME280;60511;42.686;23.300;2023-05-25T05:59:02;94798.13;;;24.55;36.67
43217;BME280;60511;42.686;23.300;2023-05-25T06:01:03;94791.34;;;24.45;36.48
43217;BME280;60511;42.686;23.300;2023-05-25T06:03:03;94774.88;;;24.35;36.63
43217;BME280;60511;42.686;23.300;2023-05-25T06:05:05;94810.25;;;24.61;36.56
43217;BME280;60511;42.686;23.300;2023-05-25T06:07:05;94705.59;;;23.91;36.78
43217;BME280;60511;42.686;23.300;2023-05-25T06:09:06;94718.56;;;24.01;36.59
43217;BME280;60511;42.686;23.300;2023-05-25T06:11:06;94775.06;;;24.42;36.57
43217;BME280;60511;42.686;23.300;2023-05-25T06:13:07;94812.59;;;24.63;36.40
43217;BME280;60511;42.686;23.300;2023-05-25T06:15:08;94814.16;;;24.64;36.47
43217;BME280;60511;42.686;23.300;2023-05-25T06:17:08;94769.56;;;24.38;36.33
43217;BME280;60511;42.686;23.300;2023-05-25T06:19:09;94808.75;;;24.64;36.53
43217;BME280;60511;42.686;23.300;2023-05-25T06:21:09;94811.03;;;24.62;36.37
43217;BME280;60511;42.686;23.300;2023-05-25T06:23:10;94805.91;;;24.57;36.41
43217;BME280;60511;42.686;23.300;2023-05-25T06:25:13;94814.53;;;24.62;36.52
43217;BME280;60511;42.686;23.300;2023-05-25T06:27:13;94783.22;;;24.45;36.39
43217;BME280;60511;42.686;23.300;2023-05-25T06:29:15;94792.56;;;24.48;36.61
43217;BME280;60511;42.686;23.300;2023-05-25T06:31:16;94803.84;;;24.50;36.62
43217;BME280;60511;42.686;23.300;2023-05-25T06:33:16;94793.59;;;24.43;36.46
43217;BME280;60511;42.686;23.300;2023-05-25T06:35:17;94789.78;;;24.44;36.53
43217;BME280;60511;42.686;23.300;2023-05-25T06:37:18;94781.88;;;24.36;36.63
43217;BME280;60511;42.686;23.300;2023-05-25T06:39:19;94797.56;;;24.46;36.53
43217;BME280;60511;42.686;23.300;2023-05-25T06:41:19;94797.03;;;24.40;36.54
43217;BME280;60511;42.686;23.300;2023-05-25T06:43:20;94823.28;;;24.56;36.88
43217;BME280;60511;42.686;23.300;2023-05-25T06:45:20;94810.69;;;24.47;36.64
43217;BME280;60511;42.686;23.300;2023-05-25T06:47:21;94789.47;;;24.30;36.64
43217;BME280;60511;42.686;23.300;2023-05-25T06:49:21;94824.69;;;24.50;36.89
43217;BME280;60511;42.686;23.300;2023-05-25T06:51:21;94819.19;;;24.46;37.04
43217;BME280;60511;42.686;23.300;2023-05-25T06:53:22;94791.41;;;24.30;37.06
43217;BME280;60511;42.686;23.300;2023-05-25T06:55:22;94793.16;;;24.22;37.21
43217;BME280;60511;42.686;23.300;2023-05-25T06:57:23;94801.69;;;24.40;37.14
43217;BME280;60511;42.686;23.300;2023-05-25T06:59:24;94805.25;;;24.44;37.17
43217;BME280;60511;42.686;23.300;2023-05-25T07:01:24;94796.19;;;24.36;37.00
43217;BME280;60511;42.686;23.300;2023-05-25T07:03:24;94810.69;;;24.47;36.98
43217;BME280;60511;42.686;23.300;2023-05-25T07:05:25;94810.66;;;24.44;37.43
43217;BME280;60511;42.686;23.300;2023-05-25T07:07:25;94787.63;;;24.34;37.58
43217;BME280;60511;42.686;23.300;2023-05-25T07:09:27;94798.16;;;24.39;37.33
43217;BME280;60511;42.686;23.300;2023-05-25T07:11:27;94821.38;;;24.56;38.05
43217;BME280;60511;42.686;23.300;2023-05-25T07:13:28;94759.13;;;24.21;37.80
43217;BME280;60511;42.686;23.300;2023-05-25T07:15:28;94814.03;;;24.57;37.62
43217;BME280;60511;42.686;23.300;2023-05-25T07:17:29;94770.91;;;24.29;37.55
43217;BME280;60511;42.686;23.300;2023-05-25T07:19:30;94795.63;;;24.46;37.80
43217;BME280;60511;42.686;23.300;2023-05-25T07:21:31;94783.50;;;24.40;38.18
43217;BME280;60511;42.686;23.300;2023-05-25T07:23:32;94810.59;;;24.60;38.23
43217;BME280;60511;42.686;23.300;2023-05-25T07:25:33;94813.31;;;24.60;38.17
43217;BME280;60511;42.686;23.300;2023-05-25T07:27:33;94805.75;;;24.50;38.20
43217;BME280;60511;42.686;23.300;2023-05-25T07:29:35;94809.25;;;24.50;38.25
43217;BME280;60511;42.686;23.300;2023-05-25T07:31:35;94803.31;;;24.44;38.33
43217;BME280;60511;42.686;23.300;2023-05-25T07:33:36;94773.59;;;24.29;38.14
43217;BME280;60511;42.686;23.300;2023-05-25T07:35:36;94817.94;;;24.59;38.25
43217;BME280;60511;42.686;23.300;2023-05-25T07:37:36;94820.66;;;24.59;38.44
43217;BME280;60511;42.686;23.300;2023-05-25T07:39:37;94829.53;;;24.60;38.14
43217;BME280;60511;42.686;23.300;2023-05-25T07:41:39;94828.00;;;24.59;38.46
43217;BME280;60511;42.686;23.300;2023-05-25T07:43:39;94819.72;;;24.52;38.74
43217;BME280;60511;42.686;23.300;2023-05-25T07:45:40;94806.44;;;24.46;38.35
43217;BME280;60511;42.686;23.300;2023-05-25T07:47:41;94804.72;;;24.38;38.04
43217;BME280;60511;42.686;23.300;2023-05-25T07:49:41;94793.03;;;24.34;38.07
43217;BME280;60511;42.686;23.300;2023-05-25T07:51:42;94811.31;;;24.57;37.73
43217;BME280;60511;42.686;23.300;2023-05-25T07:53:43;94822.56;;;24.59;37.88
43217;BME280;60511;42.686;23.300;2023-05-25T07:55:45;94821.78;;;24.58;37.74
43217;BME280;60511;42.686;23.300;2023-05-25T07:57:45;94828.00;;;24.59;37.69
43217;BME280;60511;42.686;23.300;2023-05-25T07:59:46;94810.69;;;24.47;37.66
43217;BME280;60511;42.686;23.300;2023-05-25T08:01:46;94833.75;;;24.57;37.74
43217;BME280;60511;42.686;23.300;2023-05-25T08:03:47;94823.09;;;24.49;37.70
43217;BME280;60511;42.686;23.300;2023-05-25T08:05:47;94826.59;;;24.49;37.63
43217;BME280;60511;42.686;23.300;2023-05-25T08:07:48;94840.38;;;24.60;37.39
43217;BME280;60511;42.686;23.300;2023-05-25T08:09:48;94846.16;;;24.58;37.31
43217;BME280;60511;42.686;23.300;2023-05-25T08:11:48;94842.66;;;24.58;37.01
43217;BME280;60511;42.686;23.300;2023-05-25T08:13:49;94830.38;;;24.44;36.92
43217;BME280;60511;42.686;23.300;2023-05-25T08:15:50;94860.38;;;24.55;37.00
43217;BME280;60511;42.686;23.300;2023-05-25T08:17:51;94846.00;;;24.35;36.72
43217;BME280;60511;42.686;23.300;2023-05-25T08:19:53;94842.72;;;24.26;37.01
43217;BME280;60511;42.686;23.300;2023-05-25T08:21:55;94855.97;;;24.31;36.75
43217;BME280;60511;42.686;23.300;2023-05-25T08:23:55;94857.75;;;24.23;36.84
43217;BME280;60511;42.686;23.300;2023-05-25T08:25:55;94778.69;;;23.79;36.74
43217;BME280;60511;42.686;23.300;2023-05-25T08:27:56;94885.97;;;24.42;36.57
43217;BME280;60511;42.686;23.300;2023-05-25T08:29:56;94873.34;;;24.30;36.32
43217;BME280;60511;42.686;23.300;2023-05-25T08:31:57;94798.28;;;23.76;36.58
43217;BME280;60511;42.686;23.300;2023-05-25T08:34:00;94869.75;;;24.26;36.61
43217;BME280;60511;42.686;23.300;2023-05-25T08:36:00;94856.69;;;24.12;36.53
43217;BME280;60511;42.686;23.300;2023-05-25T08:38:01;94852.94;;;24.17;37.08
43217;BME280;60511;42.686;23.300;2023-05-25T08:40:02;94898.69;;;24.41;36.75
43217;BME280;60511;42.686;23.300;2023-05-25T08:42:02;94869.75;;;24.26;37.43
43217;BME280;60511;42.686;23.300;2023-05-25T08:44:04;94885.78;;;24.35;37.54
43217;BME280;60511;42.686;23.300;2023-05-25T08:46:08;94902.47;;;24.37;37.56
43217;BME280;60511;42.686;23.300;2023-05-25T08:48:09;94891.97;;;24.35;37.70
43217;BME280;60511;42.686;23.300;2023-05-25T08:50:15;94875.25;;;24.30;37.80
43217;BME280;60511;42.686;23.300;2023-05-25T08:52:20;94890.66;;;24.45;37.64
43217;BME280;60511;42.686;23.300;2023-05-25T08:54:28;94889.38;;;24.39;37.49
43217;BME280;60511;42.686;23.300;2023-05-25T08:56:34;94855.63;;;24.17;37.67
43217;BME280;60511;42.686;23.300;2023-05-25T08:58:43;94852.06;;;24.13;37.60
43217;BME280;60511;42.686;23.300;2023-05-25T09:00:54;94889.28;;;24.35;37.70
43217;BME280;60511;42.686;23.300;2023-05-25T09:03:06;94920.06;;;24.46;37.44
43217;BME280;60511;42.686;23.300;2023-05-25T09:05:10;94922.78;;;24.46;37.63
43217;BME280;60511;42.686;23.300;2023-05-25T09:07:13;94922.34;;;24.44;37.48
43217;BME280;60511;42.686;23.300;2023-05-25T09:09:14;94916.41;;;24.39;37.41
43217;BME280;60511;42.686;23.300;2023-05-25T09:11:14;94910.56;;;24.37;37.48
43217;BME280;60511;42.686;23.300;2023-05-25T09:13:16;94894.09;;;24.26;37.56
43217;BME280;60511;42.686;23.300;2023-05-25T09:15:17;94931.25;;;24.45;37.57
43217;BME280;60511;42.686;23.300;2023-05-25T09:17:17;94921.06;;;24.38;37.72
43217;BME280;60511;42.686;23.300;2023-05-25T09:19:19;94930.13;;;24.46;37.54
43217;BME280;60511;42.686;23.300;2023-05-25T09:21:19;94913.38;;;24.40;37.64
43217;BME280;60511;42.686;23.300;2023-05-25T09:23:19;94901.16;;;24.31;37.52
43217;BME280;60511;42.686;23.300;2023-05-25T09:25:20;94911.72;;;24.36;37.46
43217;BME280;60511;42.686;23.300;2023-05-25T09:27:22;94913.81;;;24.42;37.60
43217;BME280;60511;42.686;23.300;2023-05-25T09:29:23;94910.66;;;24.40;37.68
43217;BME280;60511;42.686;23.300;2023-05-25T09:31:23;94927.03;;;24.47;37.51
43217;BME280;60511;42.686;23.300;2023-05-25T09:33:25;94923.56;;;24.47;37.85
43217;BME280;60511;42.686;23.300;2023-05-25T09:35:25;94915.44;;;24.47;37.66
43217;BME280;60511;42.686;23.300;2023-05-25T09:37:26;94914.31;;;24.48;37.79
43217;BME280;60511;42.686;23.300;2023-05-25T09:39:26;94900.28;;;24.42;37.80
43217;BME280;60511;42.686;23.300;2023-05-25T09:41:27;94895.66;;;24.43;37.84
43217;BME280;60511;42.686;23.300;2023-05-25T09:43:29;94878.75;;;24.30;37.76
43217;BME280;60511;42.686;23.300;2023-05-25T09:45:30;94900.44;;;24.50;37.64
43217;BME280;60511;42.686;23.300;2023-05-25T09:47:31;94881.16;;;24.35;37.60
43217;BME280;60511;42.686;23.300;2023-05-25T09:49:31;94877.34;;;24.36;37.87
43217;BME280;60511;42.686;23.300;2023-05-25T09:51:32;94907.09;;;24.52;38.23
43217;BME280;60511;42.686;23.300;2023-05-25T09:53:33;94875.31;;;24.33;38.09
43217;BME280;60511;42.686;23.300;2023-05-25T09:55:35;94902.91;;;24.55;38.15
43217;BME280;60511;42.686;23.300;2023-05-25T09:57:36;94885.53;;;24.40;38.25
43217;BME280;60511;42.686;23.300;2023-05-25T09:59:36;94899.41;;;24.54;38.50
43217;BME280;60511;42.686;23.300;2023-05-25T10:01:37;94892.06;;;24.55;38.32
43217;BME280;60511;42.686;23.300;2023-05-25T10:03:45;94854.50;;;24.34;38.53
43217;BME280;60511;42.686;23.300;2023-05-25T10:05:47;94870.09;;;24.40;38.31
43217;BME280;60511;42.686;23.300;2023-05-25T10:07:49;94885.34;;;24.49;38.43
43217;BME280;60511;42.686;23.300;2023-05-25T10:09:53;94876.00;;;24.46;38.40
43217;BME280;60511;42.686;23.300;2023-05-25T10:11:56;94868.66;;;24.46;38.56
43217;BME280;60511;42.686;23.300;2023-05-25T10:13:58;94883.22;;;24.58;38.48
43217;BME280;60511;42.686;23.300;2023-05-25T10:16:03;94857.00;;;24.42;38.65
43217;BME280;60511;42.686;23.300;2023-05-25T10:18:05;94822.91;;;24.22;38.35
43217;BME280;60511;42.686;23.300;2023-05-25T10:20:06;94859.41;;;24.47;38.41
43217;BME280;60511;42.686;23.300;2023-05-25T10:22:14;94864.25;;;24.54;38.71
43217;BME280;60511;42.686;23.300;2023-05-25T10:24:40;94872.06;;;24.59;38.50
43217;BME280;60511;42.686;23.300;2023-05-25T10:26:48;94874.41;;;24.61;38.45
43217;BME280;60511;42.686;23.300;2023-05-25T10:28:51;94868.22;;;24.60;38.48
43217;BME280;60511;42.686;23.300;2023-05-25T10:30:59;94867.06;;;24.61;38.47
43217;BME280;60511;42.686;23.300;2023-05-25T10:33:01;94865.16;;;24.62;38.41
43217;BME280;60511;42.686;23.300;2023-05-25T10:35:03;94843.38;;;24.55;38.41
43217;BME280;60511;42.686;23.300;2023-05-25T10:37:05;94855.13;;;24.62;38.27
43217;BME280;60511;42.686;23.300;2023-05-25T10:39:07;94834.47;;;24.54;38.29